Time;durP1;ratioP1;P1;durP2;ratioP2;P2;SDS_P1;SDS_P2;PMS_P1;PMS_P2;Temp;Humidity;BMP_temperature;BMP_pressure;BME280_temperature;BME280_humidity;BME280_pressure;Samples;Min_cycle;Max_cycle;Signal;HPM_P1;HPM_P2
2023/01/12 00:01:50;;;;;;;1.98;1.30;;;5.60;99.90;;;;;;5089985;28;20096;-78
2023/01/12 00:04:16;;;;;;;1.95;1.33;;;5.50;99.90;;;;;;5089203;28;20036;-78
2023/01/12 00:06:42;;;;;;;2.65;1.40;;;5.50;99.90;;;;;;5088906;28;20028;-78
2023/01/12 00:09:09;;;;;;;1.42;1.35;;;5.40;99.90;;;;;;5094472;28;20036;-78
2023/01/12 00:11:36;;;;;;;0.77;0.77;;;5.40;99.90;;;;;;5088884;28;20040;-77
2023/01/12 00:14:03;;;;;;;1.80;1.30;;;5.40;99.90;;;;;;5069586;28;20118;-77
2023/01/12 00:16:36;;;;;;;2.15;1.27;;;5.40;99.90;;;;;;5075774;28;20070;-79
2023/01/12 00:19:12;;;;;;;2.72;1.38;;;5.30;99.90;;;;;;5089864;28;20032;-78
2023/01/12 00:21:43;;;;;;;1.45;1.35;;;5.30;99.90;;;;;;5090358;28;20052;-78
2023/01/12 00:24:09;;;;;;;3.58;1.50;;;5.30;99.90;;;;;;5088158;28;20438;-78
2023/01/12 00:26:35;;;;;;;1.20;1.20;;;5.30;99.90;;;;;;5090607;28;20024;-78
2023/01/12 00:29:00;;;;;;;0.95;0.95;;;5.30;99.90;;;;;;5089278;28;20054;-78
2023/01/12 00:31:26;;;;;;;1.10;1.10;;;5.20;99.90;;;;;;5080149;28;20044;-77
2023/01/12 00:33:51;;;;;;;2.88;1.40;;;5.10;99.90;;;;;;5095309;28;20052;-78
2023/01/12 00:36:18;;;;;;;1.85;1.38;;;5.10;99.90;;;;;;5090636;28;20020;-78
2023/01/12 00:38:43;;;;;;;1.40;1.30;;;5.10;99.90;;;;;;5091223;28;20121;-78
2023/01/12 00:45:20;;;;;;;1.30;1.00;;;5.00;99.90;;;;;;5102166;28;20032;-79
2023/01/12 00:46:41;;;;;;;1.33;1.23;;;4.80;99.90;;;;;;5091901;28;20051;-79
2023/01/12 00:49:07;;;;;;;0.88;0.88;;;4.80;99.90;;;;;;5086786;28;20040;-81
2023/01/12 00:51:33;;;;;;;2.05;1.30;;;4.80;99.90;;;;;;5093900;28;20036;-78
2023/01/12 00:54:03;;;;;;;3.95;1.02;;;4.80;99.90;;;;;;5088062;28;20103;-79
2023/01/12 00:56:32;;;;;;;0.60;0.60;;;4.80;99.90;;;;;;5094912;28;20043;-78
2023/01/12 00:58:57;;;;;;;0.80;0.80;;;4.70;99.90;;;;;;5055769;28;1162919;-78
2023/01/12 01:01:23;;;;;;;2.28;1.58;;;4.50;99.90;;;;;;5090337;28;20066;-77
2023/01/12 01:03:48;;;;;;;2.97;1.50;;;4.40;99.90;;;;;;5086173;28;20028;-78
2023/01/12 01:06:14;;;;;;;2.63;1.48;;;4.40;99.90;;;;;;5095661;28;20059;-77
2023/01/12 01:08:39;;;;;;;3.20;1.55;;;4.50;99.90;;;;;;5093518;28;20058;-78
2023/01/12 01:11:11;;;;;;;3.22;1.50;;;4.50;99.90;;;;;;5090620;28;20035;-78
2023/01/12 01:13:42;;;;;;;1.50;1.20;;;4.60;99.90;;;;;;5092532;28;20036;-78
2023/01/12 01:16:10;;;;;;;2.65;1.42;;;4.60;99.90;;;;;;5094322;28;20031;-80
2023/01/12 01:18:36;;;;;;;1.17;1.08;;;4.60;99.90;;;;;;5088963;28;20098;-78
2023/01/12 01:21:02;;;;;;;1.05;1.02;;;4.60;99.90;;;;;;5088848;28;20029;-78
2023/01/12 01:23:31;;;;;;;3.15;1.40;;;4.60;99.90;;;;;;5086954;28;20088;-78
2023/01/12 01:26:02;;;;;;;1.30;1.17;;;4.60;99.90;;;;;;5090580;28;20037;-79
2023/01/12 01:28:28;;;;;;;1.38;1.27;;;4.60;99.90;;;;;;5090403;28;20036;-78
2023/01/12 01:31:05;;;;;;;2.33;1.73;;;4.60;99.90;;;;;;5092244;28;20055;-78
2023/01/12 01:33:31;;;;;;;3.17;1.60;;;4.60;99.90;;;;;;5090301;28;20604;-78
2023/01/12 01:35:56;;;;;;;1.30;1.20;;;4.70;99.90;;;;;;5106609;28;20029;-77
2023/01/12 01:38:22;;;;;;;2.17;1.30;;;4.70;99.90;;;;;;5095126;28;20050;-77
2023/01/12 01:40:48;;;;;;;7.22;1.48;;;4.70;99.90;;;;;;5092951;28;20632;-78
2023/01/12 01:43:15;;;;;;;2.63;1.50;;;4.60;99.90;;;;;;5093656;28;20028;-78
2023/01/12 01:45:43;;;;;;;2.75;1.83;;;4.60;99.90;;;;;;5088968;28;20092;-77
2023/01/12 01:48:12;;;;;;;1.92;1.30;;;4.60;99.90;;;;;;5070276;28;20032;-78
2023/01/12 01:50:41;;;;;;;2.22;1.42;;;4.60;99.90;;;;;;5093828;28;20036;-78
2023/01/12 01:53:13;;;;;;;4.28;1.15;;;4.60;99.90;;;;;;5092279;28;20059;-78
2023/01/12 01:55:48;;;;;;;2.08;1.88;;;4.60;99.90;;;;;;5082615;28;20068;-78
2023/01/12 01:58:18;;;;;;;1.45;1.20;;;4.50;99.90;;;;;;5092572;28;20048;-77
2023/01/12 02:00:45;;;;;;;8.82;1.88;;;4.50;99.90;;;;;;5097234;28;20063;-77
2023/01/12 02:03:13;;;;;;;1.92;1.10;;;4.50;99.90;;;;;;5091009;28;20038;-77
2023/01/12 02:05:41;;;;;;;2.20;1.08;;;4.50;99.90;;;;;;5099512;28;20080;-76
2023/01/12 02:08:30;;;;;;;3.50;1.02;;;4.50;99.90;;;;;;5073972;28;20480;-76
2023/01/12 02:10:59;;;;;;;1.50;1.38;;;4.50;99.90;;;;;;5069331;28;20040;-76
2023/01/12 02:16:28;;;;;;;3.33;1.73;;;4.50;99.90;;;;;;5087077;28;20067;-76
2023/01/12 02:19:11;;;;;;;1.80;1.10;;;4.50;99.90;;;;;;5084679;28;20021;-76
2023/01/12 02:22:28;;;;;;;4.47;1.20;;;4.50;99.90;;;;;;5085695;28;20040;-76
2023/01/12 02:25:23;;;;;;;2.38;1.58;;;4.50;99.90;;;;;;5019355;28;20044;-76
2023/01/12 02:28:10;;;;;;;1.80;1.30;;;4.50;99.90;;;;;;5012323;28;20626;-76
2023/01/12 02:31:09;;;;;;;2.88;1.40;;;4.50;99.90;;;;;;5088131;28;20032;-76
2023/01/12 02:33:55;;;;;;;6.32;1.35;;;4.50;99.90;;;;;;5077665;28;20041;-76
2023/01/12 02:36:49;;;;;;;3.55;1.73;;;4.50;99.90;;;;;;5092878;28;20625;-76
2023/01/12 02:39:24;;;;;;;2.80;1.30;;;4.50;99.90;;;;;;5085994;28;20010;-76
2023/01/12 02:42:40;;;;;;;2.22;1.55;;;4.50;99.90;;;;;;5084063;28;20042;-76
2023/01/12 02:45:17;;;;;;;4.30;1.30;;;4.50;99.90;;;;;;5089149;28;20032;-76
2023/01/12 02:47:53;;;;;;;3.97;1.08;;;4.50;99.90;;;;;;5082564;28;20039;-76
2023/01/12 02:50:40;;;;;;;2.70;1.00;;;4.50;99.90;;;;;;5099330;28;20040;-76
2023/01/12 02:53:15;;;;;;;3.85;1.10;;;4.50;99.90;;;;;;5041827;28;20036;-76
2023/01/12 02:55:41;;;;;;;2.15;1.38;;;4.50;99.90;;;;;;5092561;28;20028;-76
2023/01/12 02:58:11;;;;;;;2.38;1.10;;;4.50;99.90;;;;;;5083366;28;20017;-75
2023/01/12 03:00:39;;;;;;;3.85;1.00;;;4.50;99.90;;;;;;5065886;28;20041;-76
2023/01/12 03:03:05;;;;;;;2.58;1.42;;;4.40;99.90;;;;;;5059561;28;20123;-75
2023/01/12 03:05:31;;;;;;;3.63;1.30;;;4.40;99.90;;;;;;5066538;28;20044;-76
2023/01/12 03:08:02;;;;;;;5.65;1.40;;;4.40;99.90;;;;;;5057788;28;20029;-76
2023/01/12 03:10:51;;;;;;;3.92;1.27;;;4.40;99.90;;;;;;5064528;28;20083;-76
2023/01/12 03:13:20;;;;;;;0.90;0.90;;;4.30;99.90;;;;;;5062525;28;20040;-75
2023/01/12 03:15:47;;;;;;;;;;;4.30;99.90;;;;;;5069880;28;20032;-75
2023/01/12 03:18:40;;;;;;;1.90;1.23;;;4.30;99.90;;;;;;5066628;28;19967;-75
2023/01/12 03:21:14;;;;;;;2.60;1.20;;;4.30;99.90;;;;;;5065319;28;20033;-75
2023/01/12 03:23:55;;;;;;;5.13;1.10;;;4.30;99.90;;;;;;5060525;28;20065;-76
2023/01/12 03:26:26;;;;;;;2.40;1.50;;;4.30;99.90;;;;;;5066404;28;20052;-76
2023/01/12 03:29:04;;;;;;;3.00;1.20;;;4.20;99.90;;;;;;5059719;28;20048;-75
2023/01/12 03:31:30;;;;;;;4.05;1.42;;;4.30;99.90;;;;;;5065617;28;20064;-76
2023/01/12 03:33:55;;;;;;;2.92;1.20;;;4.30;99.90;;;;;;5066777;28;20096;-76
2023/01/12 03:36:40;;;;;;;5.78;1.45;;;4.20;99.90;;;;;;5062100;28;20654;-76
2023/01/12 03:39:37;;;;;;;1.50;1.40;;;4.30;99.90;;;;;;5070395;28;20039;-76
2023/01/12 03:42:14;;;;;;;1.40;0.88;;;4.20;99.90;;;;;;5068033;28;20067;-76
2023/01/12 03:44:57;;;;;;;1.75;1.15;;;4.10;99.90;;;;;;5063867;28;20024;-76
2023/01/12 03:47:27;;;;;;;2.10;1.20;;;4.10;99.90;;;;;;5066786;28;20105;-75
2023/01/12 03:50:02;;;;;;;1.65;0.73;;;4.10;99.90;;;;;;5061951;28;20032;-75
2023/01/12 03:52:29;;;;;;;2.72;1.33;;;4.10;99.90;;;;;;5065329;28;20029;-76
2023/01/12 03:54:57;;;;;;;9.85;1.90;;;4.10;99.90;;;;;;5062646;28;20036;-75
2023/01/12 03:57:24;;;;;;;0.90;0.90;;;4.20;99.90;;;;;;5065095;28;20142;-75
2023/01/12 03:59:51;;;;;;;2.05;1.10;;;4.20;99.90;;;;;;5068728;28;20047;-75
2023/01/12 04:02:17;;;;;;;7.13;1.40;;;4.20;99.90;;;;;;5066543;28;20041;-75
2023/01/12 04:04:43;;;;;;;1.48;1.00;;;4.20;99.90;;;;;;5069942;28;20029;-76
2023/01/12 04:07:08;;;;;;;1.48;0.90;;;4.20;99.90;;;;;;5066067;28;20037;-76
2023/01/12 04:09:34;;;;;;;2.92;1.40;;;4.20;99.90;;;;;;5066870;28;20046;-75
2023/01/12 04:12:12;;;;;;;2.13;0.82;;;4.30;99.90;;;;;;5073936;28;20028;-76
2023/01/12 04:14:39;;;;;;;2.70;1.85;;;4.30;99.90;;;;;;5062489;28;20021;-76
2023/01/12 04:17:05;;;;;;;3.28;1.38;;;4.20;99.90;;;;;;5064676;28;20040;-75
2023/01/12 04:19:31;;;;;;;1.55;1.38;;;4.30;99.90;;;;;;5065999;28;20312;-76
2023/01/12 04:24:41;;;;;;;1.95;0.88;;;4.20;99.90;;;;;;5062272;28;20043;-75
2023/01/12 04:27:06;;;;;;;2.17;1.63;;;4.20;99.90;;;;;;5066795;28;20111;-76
2023/01/12 04:29:32;;;;;;;6.78;1.10;;;4.20;99.90;;;;;;5073601;28;20037;-75
2023/01/12 04:31:57;;;;;;;3.22;1.50;;;4.20;99.90;;;;;;5069212;28;20060;-75
2023/01/12 04:34:23;;;;;;;3.33;1.35;;;4.10;99.90;;;;;;5067638;28;20020;-75
2023/01/12 04:36:49;;;;;;;2.10;1.30;;;4.10;99.90;;;;;;5062893;28;20036;-75
2023/01/12 04:39:14;;;;;;;1.27;0.85;;;4.10;99.90;;;;;;5066509;28;20114;-76
2023/01/12 04:41:40;;;;;;;4.88;1.73;;;4.10;99.90;;;;;;5066239;28;20067;-75
2023/01/12 04:44:05;;;;;;;3.08;1.60;;;4.10;99.90;;;;;;5068106;28;20061;-75
2023/01/12 04:46:31;;;;;;;1.30;1.20;;;4.00;99.90;;;;;;5067812;28;20044;-75
2023/01/12 04:48:57;;;;;;;1.75;0.98;;;4.00;99.90;;;;;;5088733;28;20069;-75
2023/01/12 04:51:23;;;;;;;3.05;1.33;;;4.00;99.90;;;;;;5067934;28;20040;-76
2023/01/12 04:53:50;;;;;;;4.00;1.65;;;4.00;99.90;;;;;;5063420;28;20033;-76
2023/01/12 04:56:16;;;;;;;3.08;1.00;;;4.10;99.90;;;;;;5065879;28;20059;-76
2023/01/12 04:58:42;;;;;;;0.68;0.68;;;4.00;99.90;;;;;;5063446;28;20036;-75
2023/01/12 05:01:19;;;;;;;4.05;0.98;;;4.00;99.90;;;;;;5063797;28;20124;-75
2023/01/12 05:03:45;;;;;;;4.93;1.40;;;4.00;99.90;;;;;;5066775;28;20515;-75
2023/01/12 05:06:10;;;;;;;1.65;1.13;;;4.00;99.90;;;;;;5064308;28;20025;-76
2023/01/12 05:11:28;;;;;;;4.78;1.05;;;4.00;99.90;;;;;;5058347;28;20128;-75
2023/01/12 05:13:55;;;;;;;4.65;1.02;;;4.00;99.90;;;;;;5064211;28;20029;-75
2023/01/12 05:16:20;;;;;;;1.60;0.82;;;3.90;99.90;;;;;;5065183;28;20088;-76
2023/01/12 05:18:46;;;;;;;4.93;1.00;;;3.90;99.90;;;;;;5066280;28;20057;-75
2023/01/12 05:21:14;;;;;;;1.05;1.02;;;3.90;99.90;;;;;;5064400;28;20037;-75
2023/01/12 05:23:40;;;;;;;2.28;1.00;;;3.90;99.90;;;;;;5070375;28;20062;-75
2023/01/12 05:26:06;;;;;;;1.27;1.17;;;3.90;99.90;;;;;;5063245;28;20032;-75
2023/01/12 05:28:32;;;;;;;1.98;1.10;;;4.00;99.90;;;;;;5061748;28;20040;-75
2023/01/12 05:31:04;;;;;;;2.88;1.20;;;4.00;99.90;;;;;;5066492;28;20041;-75
2023/01/12 05:33:30;;;;;;;1.52;1.00;;;4.00;99.90;;;;;;5061050;28;20025;-75
2023/01/12 05:35:56;;;;;;;0.82;0.82;;;4.00;99.90;;;;;;5061264;28;20029;-75
2023/01/12 05:38:22;;;;;;;5.53;1.67;;;4.00;99.90;;;;;;5059251;28;20085;-76
2023/01/12 05:40:48;;;;;;;1.25;1.15;;;3.90;99.90;;;;;;5061863;28;20051;-75
2023/01/12 05:46:03;;;;;;;1.17;1.13;;;4.00;99.90;;;;;;5062504;28;20493;-76
2023/01/12 05:48:29;;;;;;;2.70;1.38;;;4.00;99.90;;;;;;5065982;28;20103;-75
2023/01/12 05:50:59;;;;;;;0.95;0.85;;;4.00;99.90;;;;;;5059597;28;20037;-76
2023/01/12 05:53:25;;;;;;;0.60;0.60;;;4.00;99.90;;;;;;5058026;28;20058;-75
2023/01/12 05:55:50;;;;;;;2.45;0.90;;;4.00;99.90;;;;;;5062504;28;20029;-76
2023/01/12 05:58:16;;;;;;;1.33;1.08;;;4.10;99.90;;;;;;5061255;28;20029;-75
2023/01/12 06:00:41;;;;;;;0.95;0.95;;;4.20;99.90;;;;;;5065614;28;20440;-75
2023/01/12 06:03:07;;;;;;;0.95;0.95;;;4.30;99.90;;;;;;5065102;28;20024;-75
2023/01/12 06:05:32;;;;;;;0.75;0.75;;;4.30;99.90;;;;;;5060307;28;20036;-76
2023/01/12 06:07:59;;;;;;;11.65;0.98;;;4.40;99.90;;;;;;5060147;28;20024;-75
2023/01/12 06:10:25;;;;;;;2.65;0.93;;;4.40;99.90;;;;;;5061394;28;20021;-75
2023/01/12 06:15:35;;;;;;;3.35;1.40;;;4.30;99.90;;;;;;5067797;28;20040;-75
2023/01/12 06:18:01;;;;;;;0.63;0.63;;;4.40;99.90;;;;;;5065212;28;20024;-76
2023/01/12 06:20:26;;;;;;;2.55;1.75;;;4.40;99.90;;;;;;5065295;28;20029;-75
2023/01/12 06:22:52;;;;;;;0.70;0.70;;;4.40;99.90;;;;;;5062682;28;20082;-75
2023/01/12 06:25:17;;;;;;;0.77;0.77;;;4.40;99.90;;;;;;5062098;28;20486;-75
2023/01/12 06:27:43;;;;;;;0.85;0.65;;;4.50;99.90;;;;;;5062558;28;20465;-76
2023/01/12 06:30:09;;;;;;;0.60;0.60;;;4.50;99.90;;;;;;5061800;28;20116;-75
2023/01/12 06:32:35;;;;;;;5.25;1.10;;;4.40;99.90;;;;;;5060603;28;20037;-75
2023/01/12 06:35:02;;;;;;;2.63;1.20;;;4.50;99.90;;;;;;5061707;28;20076;-76
2023/01/12 06:37:28;;;;;;;1.42;0.80;;;4.60;99.90;;;;;;5066659;28;20032;-75
2023/01/12 06:39:53;;;;;;;0.82;0.82;;;4.60;99.90;;;;;;5061094;28;20115;-75
2023/01/12 06:42:28;;;;;;;0.90;0.85;;;4.50;99.90;;;;;;5061635;28;20048;-76
2023/01/12 06:44:58;;;;;;;2.95;1.10;;;4.50;99.90;;;;;;5060956;28;20025;-76
2023/01/12 06:47:24;;;;;;;2.05;0.90;;;4.60;99.90;;;;;;5069499;28;20171;-75
2023/01/12 06:49:50;;;;;;;1.10;0.90;;;4.70;99.90;;;;;;5060899;28;20036;-75
2023/01/12 06:52:20;;;;;;;3.78;0.85;;;4.70;99.90;;;;;;5069754;28;20026;-76
2023/01/12 06:54:46;;;;;;;2.45;1.20;;;4.80;99.90;;;;;;5064507;28;20029;-76
2023/01/12 06:57:13;;;;;;;4.75;2.40;;;4.80;99.90;;;;;;5068625;28;20021;-76
2023/01/12 06:59:40;;;;;;;2.20;1.85;;;4.80;99.90;;;;;;5071724;28;20049;-76
2023/01/12 07:02:10;;;;;;;0.90;0.90;;;4.90;99.90;;;;;;5067339;28;20045;-76
2023/01/12 07:04:35;;;;;;;1.00;0.95;;;4.90;99.90;;;;;;5066536;28;20525;-76
2023/01/12 07:07:01;;;;;;;1.25;1.15;;;4.80;99.90;;;;;;5059218;28;20049;-76
2023/01/12 07:09:26;;;;;;;4.45;2.88;;;4.80;99.90;;;;;;5062750;28;20036;-75
2023/01/12 07:11:52;;;;;;;4.53;2.20;;;4.80;99.90;;;;;;5079858;28;20043;-75
2023/01/12 07:14:17;;;;;;;2.15;1.60;;;4.80;99.90;;;;;;5062808;28;20033;-75
2023/01/12 07:16:43;;;;;;;0.85;0.85;;;4.90;99.90;;;;;;5064193;28;20021;-75
2023/01/12 07:19:08;;;;;;;2.38;0.95;;;4.90;99.90;;;;;;5059322;28;20021;-76
2023/01/12 07:21:34;;;;;;;4.82;1.73;;;5.00;99.90;;;;;;5063292;28;20056;-76
2023/01/12 07:24:00;;;;;;;6.00;1.40;;;4.90;99.90;;;;;;5046233;28;20029;-75
2023/01/12 07:26:25;;;;;;;2.67;1.15;;;5.00;99.90;;;;;;5064973;28;20063;-77
2023/01/12 07:28:51;;;;;;;1.15;1.05;;;5.00;99.90;;;;;;5061677;28;20060;-76
2023/01/12 07:31:17;;;;;;;1.95;1.08;;;5.00;99.90;;;;;;5059845;28;20054;-76
2023/01/12 07:33:43;;;;;;;1.20;1.10;;;5.10;99.90;;;;;;5061324;28;20028;-76
2023/01/12 07:36:09;;;;;;;3.67;1.23;;;5.10;99.90;;;;;;5072364;28;20032;-76
2023/01/12 07:38:36;;;;;;;1.27;1.20;;;5.10;99.90;;;;;;5078215;28;20032;-75
2023/01/12 07:41:03;;;;;;;0.90;0.90;;;5.10;99.90;;;;;;5079562;28;20527;-75
2023/01/12 07:43:32;;;;;;;1.55;1.27;;;5.10;99.90;;;;;;5071025;28;20051;-75
2023/01/12 07:45:57;;;;;;;;;;;5.20;99.90;;;;;;5081937;28;20813;-76
2023/01/12 07:48:25;;;;;;;0.85;0.82;;;5.20;99.90;;;;;;5074951;28;19912;-76
2023/01/12 07:50:51;;;;;;;1.80;1.00;;;5.40;99.90;;;;;;5064091;28;20042;-76
2023/01/12 07:53:17;;;;;;;2.00;1.13;;;5.40;99.90;;;;;;5065376;28;20029;-75
2023/01/12 07:55:43;;;;;;;6.95;1.83;;;5.40;99.90;;;;;;5066316;28;20045;-75
2023/01/12 07:58:09;;;;;;;1.77;1.10;;;5.50;99.90;;;;;;5068530;28;20091;-75
2023/01/12 08:00:35;;;;;;;3.15;1.23;;;5.50;99.90;;;;;;5079992;28;20067;-75
2023/01/12 08:03:10;;;;;;;1.55;0.85;;;5.60;99.90;;;;;;5083175;28;20086;-76
2023/01/12 08:05:37;;;;;;;1.33;0.93;;;5.70;99.90;;;;;;5087413;28;20032;-75
2023/01/12 08:08:03;;;;;;;0.60;0.60;;;5.70;99.90;;;;;;5094319;28;20024;-75
2023/01/12 08:10:29;;;;;;;2.08;1.23;;;5.80;99.90;;;;;;5083654;28;20045;-76
2023/01/12 08:12:55;;;;;;;2.08;1.48;;;5.80;99.90;;;;;;5087413;28;20084;-76
2023/01/12 08:15:23;;;;;;;2.78;0.90;;;5.80;99.90;;;;;;5089347;28;20028;-76
2023/01/12 08:18:03;;;;;;;1.43;1.33;;;5.90;99.90;;;;;;5084648;28;20040;-76
2023/01/12 08:20:33;;;;;;;3.15;1.13;;;5.90;99.90;;;;;;5087264;28;20044;-76
2023/01/12 08:23:12;;;;;;;1.13;0.90;;;6.00;99.90;;;;;;5086337;28;20123;-76
2023/01/12 08:25:43;;;;;;;1.30;1.00;;;6.00;99.90;;;;;;5089085;28;20122;-76
2023/01/12 08:28:15;;;;;;;2.33;1.73;;;6.00;99.90;;;;;;5084828;28;20036;-75
2023/01/12 08:30:44;;;;;;;0.98;0.98;;;6.00;99.90;;;;;;5088451;28;20064;-76
2023/01/12 08:33:10;;;;;;;1.40;1.10;;;6.10;99.90;;;;;;5088064;28;20024;-76
2023/01/12 08:35:36;;;;;;;1.25;1.20;;;6.10;99.90;;;;;;5084688;28;20032;-76
2023/01/12 08:38:02;;;;;;;2.88;1.17;;;6.10;99.90;;;;;;5086761;28;20036;-76
2023/01/12 08:41:31;;;;;;;8.07;1.15;;;6.10;99.90;;;;;;5084060;28;20020;-76
2023/01/12 08:44:00;;;;;;;2.58;1.10;;;6.10;99.90;;;;;;5089418;28;20051;-75
2023/01/12 08:46:06;;;;;;;7.55;1.40;;;6.20;99.90;;;;;;5087989;28;20045;-75
2023/01/12 08:48:41;;;;;;;2.38;1.10;;;6.30;99.90;;;;;;5083814;28;20037;-75
2023/01/12 08:51:07;;;;;;;0.85;0.75;;;6.30;99.90;;;;;;5086941;28;20048;-75
2023/01/12 08:53:33;;;;;;;3.15;1.02;;;6.30;99.90;;;;;;5080662;28;20044;-75
2023/01/12 08:55:58;;;;;;;3.10;1.00;;;6.30;99.90;;;;;;5088520;28;20037;-75
2023/01/12 08:58:24;;;;;;;1.65;0.95;;;6.30;99.90;;;;;;5087556;28;20119;-75
2023/01/12 09:00:50;;;;;;;3.00;1.27;;;6.30;99.90;;;;;;5087231;28;20028;-75
2023/01/12 09:03:15;;;;;;;7.10;1.45;;;6.40;99.90;;;;;;5088507;28;20027;-76
2023/01/12 09:05:42;;;;;;;1.27;1.20;;;6.40;99.90;;;;;;5087127;28;20043;-75
2023/01/12 09:08:08;;;;;;;1.77;1.65;;;6.40;99.90;;;;;;5090838;28;20025;-76
2023/01/12 09:10:34;;;;;;;6.00;2.60;;;6.40;99.90;;;;;;5087040;28;20059;-75
2023/01/12 09:12:59;;;;;;;1.35;0.85;;;6.50;99.90;;;;;;5087457;28;20040;-75
2023/01/12 09:15:25;;;;;;;2.88;1.65;;;6.50;99.90;;;;;;5087397;28;20068;-75
2023/01/12 09:17:54;;;;;;;3.50;1.70;;;6.50;99.90;;;;;;5084854;28;20032;-75
2023/01/12 09:20:20;;;;;;;2.00;1.15;;;6.60;99.90;;;;;;5084103;28;20025;-75
2023/01/12 09:22:45;;;;;;;1.23;1.13;;;6.60;99.90;;;;;;5087495;28;20051;-75
2023/01/12 09:25:11;;;;;;;2.40;1.15;;;6.60;99.90;;;;;;5085461;28;20060;-75
2023/01/12 09:27:37;;;;;;;5.00;1.45;;;6.70;99.90;;;;;;5083170;28;20080;-75
2023/01/12 09:30:04;;;;;;;1.25;1.08;;;6.70;99.90;;;;;;5086407;28;20048;-75
2023/01/12 09:32:29;;;;;;;2.42;1.13;;;6.80;99.90;;;;;;5089000;28;20048;-75
2023/01/12 09:34:55;;;;;;;4.70;1.60;;;6.80;99.90;;;;;;5086544;28;20424;-76
2023/01/12 09:37:21;;;;;;;2.13;1.85;;;6.80;99.90;;;;;;5085403;28;20039;-76
2023/01/12 09:39:46;;;;;;;1.92;1.20;;;6.80;99.90;;;;;;5084376;28;20858;-76
2023/01/12 09:48:07;;;;;;;1.50;0.73;;;7.00;99.90;;;;;;5086809;28;20035;-76
2023/01/12 09:50:39;;;;;;;1.90;0.95;;;7.00;99.90;;;;;;5086367;28;20096;-75
2023/01/12 09:53:26;;;;;;;1.20;1.08;;;7.00;99.90;;;;;;5090094;28;20028;-76
2023/01/12 09:56:11;;;;;;;1.02;1.02;;;7.00;99.90;;;;;;5088772;28;20036;-75
2023/01/12 09:58:46;;;;;;;1.77;1.15;;;7.10;99.90;;;;;;5095318;28;20043;-76
2023/01/12 10:01:14;;;;;;;1.27;1.17;;;7.20;99.90;;;;;;5086967;28;20066;-76
2023/01/12 10:03:42;;;;;;;0.80;0.80;;;7.20;99.90;;;;;;5087124;28;20453;-76
2023/01/12 10:06:14;;;;;;;2.13;1.17;;;7.20;99.90;;;;;;5087946;28;20287;-76
2023/01/12 10:08:49;;;;;;;1.33;1.20;;;7.20;99.90;;;;;;5083083;28;20025;-76
2023/01/12 10:11:24;;;;;;;1.77;1.10;;;7.20;99.90;;;;;;5081109;28;20071;-76
2023/01/12 10:14:07;;;;;;;1.58;1.17;;;7.30;99.90;;;;;;5086587;28;20035;-76
2023/01/12 10:16:57;;;;;;;1.05;1.02;;;7.30;99.90;;;;;;5089598;28;20112;-76
2023/01/12 10:19:52;;;;;;;3.10;1.10;;;7.30;99.90;;;;;;5086096;28;20028;-75
2023/01/12 10:22:38;;;;;;;2.15;1.15;;;7.30;99.90;;;;;;5080057;28;20052;-75
2023/01/12 10:25:17;;;;;;;2.50;0.82;;;7.30;99.90;;;;;;5087602;28;20048;-75
2023/01/12 10:27:44;;;;;;;1.63;0.90;;;7.30;99.90;;;;;;5089743;28;20439;-75
2023/01/12 10:30:23;;;;;;;2.58;1.13;;;7.30;99.90;;;;;;5081794;28;20029;-76
2023/01/12 10:32:49;;;;;;;3.33;0.93;;;7.40;99.90;;;;;;5086040;28;20041;-76
2023/01/12 10:35:17;;;;;;;4.32;0.85;;;7.40;99.90;;;;;;5087294;28;20024;-75
2023/01/12 10:37:45;;;;;;;2.30;1.10;;;7.40;99.90;;;;;;5088728;28;20048;-76
2023/01/12 10:40:29;;;;;;;0.70;0.70;;;7.40;99.90;;;;;;5087467;28;20028;-77
2023/01/12 10:43:18;;;;;;;2.83;1.02;;;7.40;99.90;;;;;;5089522;28;20054;-77
2023/01/12 10:46:02;;;;;;;2.85;1.20;;;7.40;99.90;;;;;;5087332;28;20040;-75
2023/01/12 10:48:28;;;;;;;1.35;0.95;;;7.40;99.90;;;;;;5084161;28;20084;-76
2023/01/12 10:51:05;;;;;;;2.22;1.00;;;7.40;99.90;;;;;;5089576;28;20028;-76
2023/01/12 10:53:47;;;;;;;3.30;1.30;;;7.40;99.90;;;;;;5085160;28;20028;-77
2023/01/12 10:56:22;;;;;;;2.75;1.10;;;7.40;99.90;;;;;;5084604;28;20024;-77
2023/01/12 10:58:56;;;;;;;3.08;0.95;;;7.50;99.90;;;;;;5088360;28;20124;-77
2023/01/12 11:01:22;;;;;;;3.85;1.10;;;7.50;99.90;;;;;;5088141;28;20052;-75
2023/01/12 11:03:48;;;;;;;1.00;0.80;;;7.50;99.90;;;;;;5086625;28;20028;-75
2023/01/12 11:06:31;;;;;;;2.63;1.00;;;7.50;99.90;;;;;;5086889;28;20526;-75
2023/01/12 11:08:57;;;;;;;2.08;1.05;;;7.50;99.90;;;;;;5087060;28;20056;-75
2023/01/12 11:11:29;;;;;;;3.35;0.93;;;7.50;99.90;;;;;;5091268;28;20029;-75
2023/01/12 11:14:01;;;;;;;2.92;0.90;;;7.50;99.90;;;;;;5100709;28;20036;-75
2023/01/12 11:16:33;;;;;;;1.08;0.98;;;7.50;99.90;;;;;;5096774;28;20036;-75
2023/01/12 11:19:17;;;;;;;1.33;1.20;;;7.60;99.90;;;;;;5100195;28;20033;-75
2023/01/12 11:21:54;;;;;;;2.70;1.08;;;7.60;99.90;;;;;;5084371;28;20481;-75
2023/01/12 11:24:59;;;;;;;2.33;1.15;;;7.60;99.90;;;;;;5092402;28;20045;-75
2023/01/12 11:27:39;;;;;;;2.00;1.10;;;7.60;99.90;;;;;;5051882;28;20059;-75
2023/01/12 11:30:21;;;;;;;3.15;0.80;;;7.60;99.90;;;;;;5085348;28;20060;-75
2023/01/12 11:32:55;;;;;;;1.27;1.00;;;7.60;99.90;;;;;;5091839;28;20040;-75
2023/01/12 11:35:26;;;;;;;0.70;0.68;;;7.70;99.90;;;;;;5098499;28;20075;-75
2023/01/12 11:37:56;;;;;;;2.65;1.02;;;7.60;99.90;;;;;;5089758;28;20098;-75
2023/01/12 11:40:28;;;;;;;0.80;0.80;;;7.60;99.90;;;;;;5093398;28;20041;-75
2023/01/12 11:45:52;;;;;;;3.58;1.25;;;7.70;99.90;;;;;;5084375;28;20043;-75
2023/01/12 11:48:26;;;;;;;3.58;1.20;;;7.60;99.90;;;;;;5087875;28;20036;-76
2023/01/12 11:50:53;;;;;;;0.65;0.65;;;7.70;99.90;;;;;;5089591;28;20057;-74
2023/01/12 11:53:24;;;;;;;1.80;0.90;;;7.70;99.90;;;;;;5088535;28;20027;-74
2023/01/12 11:56:05;;;;;;;1.60;1.02;;;7.70;99.90;;;;;;5096347;28;20025;-75
2023/01/12 11:59:00;;;;;;;0.65;0.60;;;7.70;99.90;;;;;;5087765;28;20080;-75
2023/01/12 12:01:42;;;;;;;1.23;0.75;;;7.70;99.90;;;;;;5081572;28;20040;-75
2023/01/12 12:04:27;;;;;;;2.78;1.13;;;7.70;99.90;;;;;;5083952;28;20896;-75
2023/01/12 12:07:29;;;;;;;4.15;1.17;;;7.70;99.90;;;;;;5091626;28;20032;-75
2023/01/12 12:10:22;;;;;;;0.60;0.60;;;7.70;99.90;;;;;;5089781;28;20052;-75
2023/01/12 12:12:51;;;;;;;1.95;0.90;;;7.70;99.90;;;;;;5091596;28;20044;-75
2023/01/12 12:15:31;;;;;;;3.67;1.58;;;7.70;99.90;;;;;;5087229;28;20119;-75
2023/01/12 12:18:31;;;;;;;2.85;0.65;;;7.70;99.90;;;;;;5088845;28;20024;-75
2023/01/12 12:21:38;;;;;;;2.25;1.55;;;7.70;99.90;;;;;;5095811;28;20091;-75
2023/01/12 12:24:41;;;;;;;0.93;0.82;;;7.70;99.90;;;;;;5053155;28;20115;-75
2023/01/12 12:27:41;;;;;;;2.38;1.23;;;7.70;99.90;;;;;;5088620;28;20036;-75
2023/01/12 12:30:32;;;;;;;1.15;0.65;;;7.70;99.90;;;;;;5085658;28;20083;-75
2023/01/12 12:33:16;;;;;;;1.60;0.70;;;7.70;99.90;;;;;;5073669;28;20037;-75
2023/01/12 12:36:17;;;;;;;3.75;1.10;;;7.70;99.90;;;;;;5089098;28;20025;-75
2023/01/12 12:39:17;;;;;;;2.22;0.73;;;7.70;99.90;;;;;;5091661;28;20033;-75
2023/01/12 12:45:41;;;;;;;1.50;0.90;;;7.80;99.90;;;;;;5031384;28;20044;-77
2023/01/12 12:48:33;;;;;;;1.27;0.68;;;7.80;99.90;;;;;;5027933;28;20530;-74
2023/01/12 12:51:03;;;;;;;1.00;0.93;;;7.80;99.90;;;;;;5086442;28;20046;-75
2023/01/12 12:53:34;;;;;;;1.20;1.13;;;7.80;99.90;;;;;;5084915;28;20101;-75
2023/01/12 12:56:06;;;;;;;1.73;0.80;;;7.80;99.90;;;;;;5093772;28;20088;-75
2023/01/12 12:58:53;;;;;;;0.80;0.80;;;7.90;99.90;;;;;;5089821;28;20037;-75
2023/01/12 13:01:22;;;;;;;2.30;0.60;;;8.00;99.90;;;;;;5089013;28;20055;-75
2023/01/12 13:03:50;;;;;;;0.57;0.57;;;8.00;99.90;;;;;;5091711;28;20036;-75
2023/01/12 13:06:33;;;;;;;1.95;0.90;;;8.00;99.90;;;;;;5097924;28;20037;-75
2023/01/12 13:09:20;;;;;;;1.27;0.70;;;8.10;99.90;;;;;;5085744;28;20024;-75
2023/01/12 13:11:52;;;;;;;1.33;1.13;;;8.30;99.90;;;;;;5071024;28;20056;-75
2023/01/12 13:14:27;;;;;;;0.52;0.52;;;8.20;99.90;;;;;;5088252;28;20044;-75
2023/01/12 13:17:14;;;;;;;1.98;0.65;;;8.30;99.90;;;;;;5085801;28;20020;-75
2023/01/12 13:19:45;;;;;;;2.05;0.95;;;8.30;99.90;;;;;;5086901;28;20092;-74
2023/01/12 13:22:42;;;;;;;12.43;3.28;;;8.40;99.90;;;;;;5082978;28;20028;-74
2023/01/12 13:25:21;;;;;;;0.90;0.90;;;8.40;99.90;;;;;;5083955;28;20025;-74
2023/01/12 13:27:59;;;;;;;0.80;0.80;;;8.50;99.90;;;;;;5084242;28;20035;-74
2023/01/12 13:30:28;;;;;;;2.35;1.10;;;8.60;99.90;;;;;;5085627;28;20046;-75
2023/01/12 13:32:53;;;;;;;2.33;0.80;;;8.60;99.90;;;;;;5085502;28;20362;-75
2023/01/12 13:35:34;;;;;;;1.00;0.77;;;8.60;99.90;;;;;;5072695;28;20092;-75
2023/01/12 13:38:12;;;;;;;0.30;0.30;;;8.60;99.90;;;;;;5081880;28;20064;-75
2023/01/12 13:40:39;;;;;;;1.15;0.52;;;8.60;99.90;;;;;;5092668;28;20032;-75
2023/01/12 13:43:18;;;;;;;3.38;0.60;;;8.60;99.90;;;;;;5090444;28;20040;-75
2023/01/12 13:45:58;;;;;;;0.60;0.60;;;8.50;99.90;;;;;;5088549;28;20023;-74
2023/01/12 13:48:24;;;;;;;0.47;0.47;;;8.50;99.90;;;;;;5089681;28;20025;-75
2023/01/12 13:50:57;;;;;;;2.08;0.77;;;8.50;99.90;;;;;;5087532;28;20013;-75
2023/01/12 13:53:28;;;;;;;0.77;0.70;;;8.40;99.90;;;;;;5067446;28;20028;-75